createdAt,value
2019-01-06T00:01:47.564Z,10.13
2019-01-06T00:04:50.251Z,10.50
2019-01-06T00:07:53.082Z,14.33
2019-01-06T00:10:53.992Z,9.83
2019-01-06T00:13:44.906Z,9.53
2019-01-06T00:16:35.587Z,9.20
2019-01-06T00:19:30.774Z,8.83
2019-01-06T00:22:21.108Z,12.87
2019-01-06T00:25:11.566Z,8.10
2019-01-06T00:28:05.265Z,8.47
2019-01-06T00:30:48.617Z,11.30
2019-01-06T00:33:39.093Z,8.03
2019-01-06T00:36:29.510Z,7.57
2019-01-06T00:39:38.897Z,8.57
2019-01-06T00:42:29.322Z,8.30
2019-01-06T00:45:17.899Z,12.37
2019-01-06T00:48:23.755Z,11.10
2019-01-06T00:51:19.790Z,7.73
2019-01-06T00:54:28.756Z,10.77
2019-01-06T00:57:17.505Z,11.07
2019-01-06T01:00:08.985Z,10.40
2019-01-06T01:03:11.890Z,9.43
2019-01-06T01:06:05.571Z,6.40
2019-01-06T01:08:59.055Z,8.40
2019-01-06T01:11:48.434Z,8.43
2019-01-06T01:14:44.678Z,6.83
2019-01-06T01:17:48.055Z,6.03
2019-01-06T01:20:44.440Z,8.70
2019-01-06T01:23:34.748Z,4.83
2019-01-06T01:26:23.531Z,10.70
2019-01-06T01:29:24.275Z,8.93
2019-01-06T01:32:20.027Z,9.53
2019-01-06T01:35:12.081Z,8.80
2019-01-06T01:38:01.646Z,8.13
2019-01-06T01:40:50.022Z,7.10
2019-01-06T01:43:38.678Z,6.77
2019-01-06T01:46:30.411Z,7.13
2019-01-06T01:49:23.595Z,10.57
2019-01-06T01:52:15.121Z,7.33
2019-01-06T01:55:07.199Z,7.30
2019-01-06T01:58:06.729Z,9.70
2019-01-06T02:00:56.611Z,5.37
2019-01-06T02:03:58.705Z,8.37
2019-01-06T02:07:03.747Z,5.37
2019-01-06T02:09:55.989Z,7.00
2019-01-06T02:12:45.882Z,7.33
2019-01-06T02:15:48.499Z,5.60
2019-01-06T02:18:34.307Z,8.57
2019-01-06T02:21:34.122Z,6.90
2019-01-06T02:24:18.694Z,7.40
2019-01-06T02:27:09.117Z,7.90
2019-01-06T02:29:57.781Z,6.93
2019-01-06T02:33:06.573Z,9.40
2019-01-06T02:35:56.676Z,9.57
2019-01-06T02:38:46.060Z,6.87
2019-01-06T02:41:34.108Z,6.77
2019-01-06T02:44:38.471Z,7.43
2019-01-06T02:47:39.630Z,9.47
2019-01-06T02:50:42.104Z,6.90
2019-01-06T02:53:41.053Z,5.70
2019-01-06T02:56:30.332Z,7.17
2019-01-06T02:59:32.743Z,7.77
2019-01-06T03:02:22.102Z,6.10
2019-01-06T03:05:12.653Z,12.10
2019-01-06T03:08:01.414Z,9.20
2019-01-06T03:10:50.077Z,7.10
2019-01-06T03:13:38.956Z,7.90
2019-01-06T03:16:29.260Z,12.63
2019-01-06T03:19:18.037Z,8.70
2019-01-06T03:22:19.807Z,10.87
2019-01-06T03:25:13.277Z,9.00
2019-01-06T03:28:07.095Z,10.27
2019-01-06T03:30:50.232Z,11.47
2019-01-06T03:33:49.126Z,12.93
2019-01-06T03:36:48.793Z,12.27
2019-01-06T03:39:46.393Z,11.47
2019-01-06T03:42:35.602Z,12.33
2019-01-06T03:45:24.775Z,10.53
2019-01-06T03:48:18.496Z,10.37
2019-01-06T03:51:15.090Z,8.27
2019-01-06T03:54:03.050Z,8.60
2019-01-06T03:56:51.903Z,9.83
2019-01-06T03:59:50.679Z,14.13
2019-01-06T04:02:45.057Z,11.53
2019-01-06T04:05:47.853Z,9.37
2019-01-06T04:08:36.831Z,10.37
2019-01-06T04:11:26.334Z,12.33
2019-01-06T04:14:14.877Z,12.63
2019-01-06T04:17:14.622Z,9.60
2019-01-06T04:20:04.826Z,9.00
2019-01-06T04:23:01.992Z,11.03
2019-01-06T04:26:03.768Z,9.40
2019-01-06T04:28:53.968Z,10.57
2019-01-06T04:31:42.433Z,14.17
2019-01-06T04:34:35.725Z,12.30
2019-01-06T04:37:33.530Z,12.10
2019-01-06T04:40:15.972Z,13.90
2019-01-06T04:43:12.162Z,13.63
2019-01-06T04:46:08.660Z,8.23
2019-01-06T04:48:58.976Z,9.63
2019-01-06T04:51:52.950Z,6.63
2019-01-06T04:54:35.873Z,7.57
2019-01-06T04:57:24.641Z,12.40
2019-01-06T05:00:17.236Z,9.10
2019-01-06T05:03:07.279Z,8.77
2019-01-06T05:06:02.709Z,10.03
2019-01-06T05:08:55.163Z,6.47
2019-01-06T05:11:51.309Z,6.77
2019-01-06T05:14:43.758Z,6.07
2019-01-06T05:17:35.004Z,8.33
2019-01-06T05:20:24.286Z,8.07
2019-01-06T05:23:13.240Z,10.33
2019-01-06T05:26:12.982Z,5.17
2019-01-06T05:29:16.384Z,7.93
2019-01-06T05:32:05.862Z,6.93
2019-01-06T05:35:05.280Z,6.23
2019-01-06T05:37:54.562Z,6.83
2019-01-06T05:40:51.036Z,7.30
2019-01-06T05:43:43.936Z,7.60
2019-01-06T05:46:42.953Z,8.20
2019-01-06T05:49:22.902Z,5.13
2019-01-06T05:52:12.074Z,4.80
2019-01-06T05:55:13.835Z,4.50
2019-01-06T05:58:02.698Z,5.27
2019-01-06T06:00:56.086Z,4.63
2019-01-06T06:03:49.570Z,5.70
2019-01-06T06:06:46.106Z,5.70
2019-01-06T06:09:44.092Z,3.67
2019-01-06T06:12:46.445Z,7.00
2019-01-06T06:15:37.149Z,4.10
2019-01-06T06:18:26.456Z,5.60
2019-01-06T06:21:25.828Z,6.47
2019-01-06T06:24:17.913Z,5.77
2019-01-06T06:27:22.850Z,6.27
2019-01-06T06:30:15.518Z,6.37
2019-01-06T06:33:18.101Z,3.47
2019-01-06T06:36:21.285Z,4.10
2019-01-06T06:39:12.217Z,7.77
2019-01-06T06:41:57.477Z,3.63
2019-01-06T06:45:02.827Z,4.27
2019-01-06T06:47:52.328Z,3.73
2019-01-06T06:50:44.881Z,7.33
2019-01-06T06:53:36.129Z,3.40
2019-01-06T06:56:37.282Z,3.93
2019-01-06T06:59:26.349Z,3.17
2019-01-06T07:02:57.394Z,5.87
2019-01-06T07:05:46.457Z,3.33
2019-01-06T07:08:35.623Z,7.80
2019-01-06T07:11:28.479Z,4.17
2019-01-06T07:14:23.171Z,7.13
2019-01-06T07:17:51.868Z,4.27
2019-01-06T07:20:41.242Z,2.97
2019-01-06T07:23:32.084Z,4.33
2019-01-06T07:26:21.008Z,3.30
2019-01-06T07:29:10.279Z,4.17
2019-01-06T07:32:00.269Z,4.33
2019-01-06T07:34:53.642Z,4.20
2019-01-06T07:37:54.483Z,3.20
2019-01-06T07:40:54.201Z,2.70
2019-01-06T07:43:44.495Z,3.17
2019-01-06T07:46:49.918Z,3.27
2019-01-06T07:49:44.350Z,3.90
2019-01-06T07:52:44.380Z,3.87
2019-01-06T07:55:39.724Z,3.70
2019-01-06T07:58:45.477Z,3.83
2019-01-06T08:01:41.530Z,4.47
2019-01-06T08:04:32.012Z,3.57
2019-01-06T08:07:24.928Z,3.30
2019-01-06T08:10:14.561Z,3.97
2019-01-06T08:13:06.397Z,4.27
2019-01-06T08:16:01.001Z,3.77
2019-01-06T08:19:11.628Z,3.60
2019-01-06T08:22:10.768Z,3.10
2019-01-06T08:25:03.336Z,3.67
2019-01-06T08:28:03.358Z,3.37
2019-01-06T08:30:54.542Z,2.70
2019-01-06T08:33:56.340Z,3.97
2019-01-06T08:36:49.500Z,4.10
2019-01-06T08:39:39.885Z,3.27
2019-01-06T08:42:37.774Z,5.37
2019-01-06T08:45:28.259Z,3.80
2019-01-06T08:48:19.931Z,3.87
2019-01-06T08:51:09.615Z,5.90
2019-01-06T08:54:15.093Z,4.67
2019-01-06T08:57:06.717Z,6.50
2019-01-06T08:59:58.948Z,4.00
2019-01-06T09:02:53.030Z,4.53
2019-01-06T09:05:50.643Z,4.50
2019-01-06T09:08:50.235Z,3.93
2019-01-06T09:11:56.885Z,5.83
2019-01-06T09:14:53.204Z,4.37
2019-01-06T09:17:50.991Z,5.30
2019-01-06T09:20:53.013Z,3.50
2019-01-06T09:23:47.042Z,2.63
2019-01-06T09:26:40.607Z,3.53
2019-01-06T09:29:32.423Z,3.70
2019-01-06T09:32:39.519Z,4.07
2019-01-06T09:35:28.999Z,2.63
2019-01-06T09:38:40.387Z,8.47
2019-01-06T09:41:22.706Z,4.50
2019-01-06T09:44:17.320Z,4.77
2019-01-06T09:47:07.920Z,6.23
2019-01-06T09:49:58.501Z,3.67
2019-01-06T09:52:56.039Z,3.33
2019-01-06T09:55:44.547Z,3.07
2019-01-06T09:58:49.789Z,5.33
2019-01-06T10:01:38.536Z,2.53
2019-01-06T10:04:34.818Z,2.77
2019-01-06T10:07:36.375Z,4.40
2019-01-06T10:10:26.850Z,2.43
2019-01-06T10:13:20.194Z,4.30
2019-01-06T10:16:10.255Z,4.83
2019-01-06T10:19:03.830Z,4.50
2019-01-06T10:22:06.112Z,3.57
2019-01-06T10:25:07.321Z,5.00
2019-01-06T10:27:56.740Z,3.73
2019-01-06T10:30:47.754Z,2.43
2019-01-06T10:33:46.325Z,1.67
2019-01-06T10:36:44.409Z,2.23
2019-01-06T10:39:35.038Z,2.73
2019-01-06T10:42:24.425Z,2.83
2019-01-06T10:45:03.357Z,1.97
2019-01-06T10:48:00.681Z,1.50
2019-01-06T10:50:49.193Z,2.10
2019-01-06T10:53:41.972Z,5.00
2019-01-06T10:56:32.266Z,3.27
2019-01-06T10:59:12.930Z,2.00
2019-01-06T11:02:18.080Z,2.63
2019-01-06T11:05:16.967Z,4.03
2019-01-06T11:08:22.274Z,2.10
2019-01-06T11:11:29.616Z,2.70
2019-01-06T11:14:39.000Z,2.67
2019-01-06T11:17:37.340Z,2.10
2019-01-06T11:20:36.621Z,3.20
2019-01-06T11:23:31.766Z,1.30
2019-01-06T11:26:24.912Z,3.03
2019-01-06T11:29:13.874Z,1.70
2019-01-06T11:32:13.085Z,2.30
2019-01-06T11:35:02.171Z,2.73
2019-01-06T11:37:58.112Z,1.73
2019-01-06T11:40:49.192Z,2.63
2019-01-06T11:43:41.201Z,3.53
2019-01-06T11:46:34.102Z,3.10
2019-01-06T11:49:23.877Z,1.37
2019-01-06T11:52:15.746Z,1.17
2019-01-06T11:55:18.380Z,1.40
2019-01-06T11:58:25.781Z,2.70
2019-01-06T12:01:27.531Z,1.00
2019-01-06T12:04:24.278Z,2.10
2019-01-06T12:07:17.232Z,2.00
2019-01-06T12:10:06.778Z,1.17
2019-01-06T12:13:02.837Z,0.80
2019-01-06T12:16:00.014Z,1.50
2019-01-06T12:18:50.470Z,1.77
2019-01-06T12:21:57.172Z,1.03
2019-01-06T12:24:53.710Z,2.07
2019-01-06T12:28:00.712Z,3.80
2019-01-06T12:31:03.669Z,3.60
2019-01-06T12:34:17.806Z,1.17
2019-01-06T12:37:26.256Z,3.87
2019-01-06T12:40:21.778Z,2.63
2019-01-06T12:43:12.392Z,2.13
2019-01-06T12:46:16.496Z,3.10
2019-01-06T12:49:17.245Z,2.57
2019-01-06T12:52:09.889Z,1.40
2019-01-06T12:54:56.091Z,1.40
2019-01-06T12:57:54.548Z,2.87
2019-01-06T13:00:55.100Z,2.37
2019-01-06T13:03:49.077Z,2.07
2019-01-06T13:06:38.663Z,1.83
2019-01-06T13:09:44.091Z,2.50
2019-01-06T13:12:36.931Z,1.43
2019-01-06T13:15:35.299Z,2.03
2019-01-06T13:18:31.613Z,2.50
2019-01-06T13:21:21.977Z,1.97
2019-01-06T13:24:11.053Z,3.73
2019-01-06T13:27:02.183Z,1.67
2019-01-06T13:29:55.729Z,2.00
2019-01-06T13:32:53.308Z,2.03
2019-01-06T13:35:43.100Z,1.93
2019-01-06T13:38:33.711Z,2.33
2019-01-06T13:41:35.706Z,4.20
2019-01-06T13:44:33.423Z,2.67
2019-01-06T13:47:30.908Z,1.90
2019-01-06T13:50:21.337Z,2.67
2019-01-06T13:53:13.003Z,2.30
2019-01-06T13:56:13.440Z,3.37
2019-01-06T13:59:22.160Z,2.57
2019-01-06T14:02:03.258Z,1.73
2019-01-06T14:05:06.051Z,2.13
2019-01-06T14:08:09.013Z,2.00
2019-01-06T14:11:00.088Z,1.90
2019-01-06T14:13:51.223Z,4.07
2019-01-06T14:16:40.299Z,3.37
2019-01-06T14:19:44.112Z,4.50
2019-01-06T14:22:37.748Z,3.63
2019-01-06T14:25:27.660Z,2.17
2019-01-06T14:28:27.386Z,1.80
2019-01-06T14:31:20.808Z,2.47
2019-01-06T14:34:15.154Z,3.03
2019-01-06T14:37:06.223Z,5.23
2019-01-06T14:39:55.230Z,3.50
2019-01-06T14:43:04.875Z,2.73
2019-01-06T14:46:01.272Z,2.27
2019-01-06T14:48:52.794Z,2.73
2019-01-06T14:51:48.371Z,2.83
2019-01-06T14:54:37.991Z,3.20
2019-01-06T14:57:29.776Z,4.27
2019-01-06T15:00:22.286Z,4.10
2019-01-06T15:03:13.393Z,5.00
2019-01-06T15:06:11.538Z,10.27
2019-01-06T15:09:07.751Z,6.10
2019-01-06T15:11:57.244Z,9.37
2019-01-06T15:14:49.714Z,6.33
2019-01-06T15:17:46.728Z,5.37
2019-01-06T15:20:43.442Z,4.37
2019-01-06T15:23:55.254Z,3.80
2019-01-06T15:27:00.206Z,4.83
2019-01-06T15:29:59.655Z,6.93
2019-01-06T15:32:51.989Z,7.90
2019-01-06T15:35:40.189Z,5.60
2019-01-06T15:38:37.545Z,10.93
2019-01-06T15:42:12.660Z,10.23
2019-01-06T15:44:56.567Z,8.33
2019-01-06T15:47:47.634Z,9.07
2019-01-06T15:51:04.720Z,5.57
2019-01-06T15:53:56.631Z,9.57
2019-01-06T15:56:57.814Z,8.53
2019-01-06T15:59:53.684Z,6.20
2019-01-06T16:02:58.799Z,7.13
2019-01-06T16:06:02.135Z,6.40
2019-01-06T16:08:54.866Z,7.27
2019-01-06T16:12:01.590Z,6.87
2019-01-06T16:15:04.220Z,7.47
2019-01-06T16:17:49.353Z,7.60
2019-01-06T16:20:47.196Z,8.53
2019-01-06T16:23:39.647Z,8.23
2019-01-06T16:26:30.297Z,7.33
2019-01-06T16:29:23.282Z,9.27
2019-01-06T16:32:14.257Z,7.20
2019-01-06T16:35:23.098Z,6.57
2019-01-06T16:38:15.738Z,7.27
2019-01-06T16:41:17.326Z,7.97
2019-01-06T16:44:12.863Z,8.43
2019-01-06T16:47:20.449Z,8.30
2019-01-06T16:50:09.807Z,10.17
2019-01-06T16:53:20.564Z,10.17
2019-01-06T16:56:27.106Z,12.13
2019-01-06T16:59:16.915Z,14.23
2019-01-06T17:02:06.430Z,11.70
2019-01-06T17:04:55.896Z,11.37
2019-01-06T17:07:56.480Z,10.37
2019-01-06T17:10:56.702Z,13.03
2019-01-06T17:14:02.868Z,14.37
2019-01-06T17:16:55.333Z,18.73
2019-01-06T17:19:51.387Z,14.43
2019-01-06T17:22:42.237Z,14.87
2019-01-06T17:25:31.286Z,13.67
2019-01-06T17:28:39.655Z,12.53
2019-01-06T17:31:31.786Z,14.73
2019-01-06T17:34:22.263Z,12.93
2019-01-06T17:37:13.273Z,19.07
2019-01-06T17:40:09.984Z,10.47
2019-01-06T17:43:04.317Z,15.67
2019-01-06T17:45:55.310Z,13.70
2019-01-06T17:49:05.378Z,16.20
2019-01-06T17:51:56.116Z,16.83
2019-01-06T17:54:54.053Z,14.73
2019-01-06T17:57:47.059Z,15.63
2019-01-06T18:00:51.732Z,9.57
2019-01-06T18:03:48.622Z,9.73
2019-01-06T18:06:42.614Z,11.30
2019-01-06T18:09:34.392Z,13.83
2019-01-06T18:12:23.366Z,11.93
2019-01-06T18:15:12.665Z,10.43
2019-01-06T18:18:12.571Z,13.97
2019-01-06T18:21:18.541Z,11.37
2019-01-06T18:24:12.127Z,9.60
2019-01-06T18:27:08.841Z,10.93
2019-01-06T18:30:04.363Z,9.90
2019-01-06T18:33:00.357Z,10.67
2019-01-06T18:35:57.230Z,11.43
2019-01-06T18:38:52.899Z,10.20
2019-01-06T18:41:49.161Z,10.13
2019-01-06T18:44:49.999Z,10.40
2019-01-06T18:47:45.527Z,14.63
2019-01-06T18:50:49.263Z,12.73
2019-01-06T18:53:58.362Z,13.70
2019-01-06T18:57:00.144Z,11.23
2019-01-06T18:59:45.250Z,14.10
2019-01-06T19:02:40.089Z,13.67
2019-01-06T19:05:47.095Z,14.30
2019-01-06T19:08:44.096Z,12.07
2019-01-06T19:11:52.825Z,18.40
2019-01-06T19:14:51.593Z,13.20
2019-01-06T19:17:42.475Z,14.97
2019-01-06T19:20:43.105Z,17.53
2019-01-06T19:23:37.177Z,15.77
2019-01-06T19:26:34.634Z,18.30
2019-01-06T19:29:35.480Z,16.30
2019-01-06T19:32:29.263Z,15.57
2019-01-06T19:35:15.101Z,19.77
2019-01-06T19:38:39.893Z,18.90
2019-01-06T19:41:32.489Z,16.23
2019-01-06T19:44:27.096Z,18.10
2019-01-06T19:47:21.292Z,17.97
2019-01-06T19:50:12.945Z,19.00
2019-01-06T19:53:21.641Z,16.27
2019-01-06T19:56:08.143Z,17.37
2019-01-06T19:58:55.163Z,16.13
2019-01-06T20:01:59.175Z,14.93
2019-01-06T20:04:53.750Z,17.27
2019-01-06T20:07:45.077Z,15.53
2019-01-06T20:10:35.086Z,13.20
2019-01-06T20:13:29.084Z,14.70
2019-01-06T20:16:17.526Z,16.63
2019-01-06T20:19:18.099Z,13.97
2019-01-06T20:22:21.061Z,14.13
2019-01-06T20:25:15.420Z,17.37
2019-01-06T20:28:21.407Z,14.87
2019-01-06T20:31:15.462Z,20.27
2019-01-06T20:34:05.366Z,15.17
2019-01-06T20:36:55.455Z,14.60
2019-01-06T20:39:45.952Z,15.17
2019-01-06T20:42:39.822Z,17.33
2019-01-06T20:45:30.945Z,16.40
2019-01-06T20:48:30.660Z,18.20
2019-01-06T20:51:20.606Z,18.43
2019-01-06T20:54:22.948Z,16.37
2019-01-06T20:57:13.423Z,16.00
2019-01-06T21:00:03.696Z,16.33
2019-01-06T21:03:02.188Z,16.37
2019-01-06T21:05:50.453Z,15.20
2019-01-06T21:08:43.012Z,14.13
2019-01-06T21:11:40.440Z,15.43
2019-01-06T21:14:28.059Z,12.80
2019-01-06T21:17:18.104Z,14.50
2019-01-06T21:20:07.233Z,15.63
2019-01-06T21:23:22.805Z,14.93
2019-01-06T21:26:20.692Z,14.53
2019-01-06T21:29:13.242Z,14.67
2019-01-06T21:32:04.349Z,18.33
2019-01-06T21:34:59.140Z,15.30
2019-01-06T21:37:49.557Z,13.20
2019-01-06T21:40:52.041Z,16.00
2019-01-06T21:43:48.934Z,15.57
2019-01-06T21:46:38.350Z,15.13
2019-01-06T21:49:47.785Z,12.83
2019-01-06T21:52:39.085Z,13.40
2019-01-06T21:55:33.881Z,17.03
2019-01-06T21:58:33.663Z,16.87
2019-01-06T22:01:21.738Z,16.03
2019-01-06T22:04:16.223Z,14.90
2019-01-06T22:07:22.109Z,14.97
2019-01-06T22:10:11.388Z,13.43
2019-01-06T22:13:07.992Z,16.10
2019-01-06T22:15:58.278Z,17.57
2019-01-06T22:18:47.450Z,17.17
2019-01-06T22:21:40.710Z,14.83
2019-01-06T22:24:32.741Z,15.60
2019-01-06T22:27:37.271Z,14.37
2019-01-06T22:30:28.000Z,11.93
2019-01-06T22:33:17.339Z,11.83
2019-01-06T22:36:09.270Z,12.60
2019-01-06T22:38:58.238Z,12.80
2019-01-06T22:41:55.817Z,11.00
2019-01-06T22:44:51.582Z,12.20
2019-01-06T22:47:59.115Z,10.63
2019-01-06T22:50:54.429Z,7.77
2019-01-06T22:53:47.599Z,7.60
2019-01-06T22:56:38.783Z,9.00
2019-01-06T22:59:31.594Z,9.33
2019-01-06T23:02:20.822Z,8.43
2019-01-06T23:05:10.656Z,10.77
2019-01-06T23:08:06.126Z,10.73
2019-01-06T23:11:09.620Z,8.27
2019-01-06T23:14:12.535Z,10.73
2019-01-06T23:17:23.202Z,7.50
2019-01-06T23:20:20.650Z,9.53
2019-01-06T23:23:16.689Z,8.37
2019-01-06T23:26:05.124Z,7.77
2019-01-06T23:28:53.673Z,8.40
2019-01-06T23:31:45.096Z,6.90
2019-01-06T23:34:33.855Z,7.73
2019-01-06T23:37:26.974Z,6.97
2019-01-06T23:40:15.870Z,6.20
2019-01-06T23:43:15.379Z,5.53
2019-01-06T23:46:17.858Z,3.97
2019-01-06T23:49:06.924Z,4.30
2019-01-06T23:51:52.615Z,5.30
2019-01-06T23:54:43.721Z,5.10
2019-01-06T23:57:34.833Z,4.43
